sensor_id;sensor_type;location;lat;lon;timestamp;P1;durP1;ratioP1;P2;durP2;ratioP2
15258;SDS011;34462;51.368;12.364;2023-04-24T00:01:37;3.38;;;1.75;;
15258;SDS011;34462;51.368;12.364;2023-04-24T00:04:05;1.48;;;1.38;;
15258;SDS011;34462;51.368;12.364;2023-04-24T00:06:37;2.70;;;1.70;;
15258;SDS011;34462;51.368;12.364;2023-04-24T00:09:10;1.90;;;1.80;;
15258;SDS011;34462;51.368;12.364;2023-04-24T00:11:38;2.30;;;2.10;;
15258;SDS011;34462;51.368;12.364;2023-04-24T00:14:06;1.90;;;1.80;;
15258;SDS011;34462;51.368;12.364;2023-04-24T00:16:34;2.20;;;2.00;;
15258;SDS011;34462;51.368;12.364;2023-04-24T00:19:03;3.60;;;2.20;;
15258;SDS011;34462;51.368;12.364;2023-04-24T00:21:32;2.17;;;1.97;;
15258;SDS011;34462;51.368;12.364;2023-04-24T00:24:00;3.30;;;2.10;;
15258;SDS011;34462;51.368;12.364;2023-04-24T00:26:29;2.33;;;2.07;;
15258;SDS011;34462;51.368;12.364;2023-04-24T00:28:57;2.27;;;2.07;;
15258;SDS011;34462;51.368;12.364;2023-04-24T00:31:26;2.20;;;2.00;;
15258;SDS011;34462;51.368;12.364;2023-04-24T00:33:54;2.47;;;2.28;;
15258;SDS011;34462;51.368;12.364;2023-04-24T00:36:22;3.13;;;2.25;;
15258;SDS011;34462;51.368;12.364;2023-04-24T00:38:51;2.27;;;2.07;;
15258;SDS011;34462;51.368;12.364;2023-04-24T00:41:19;2.20;;;2.00;;
15258;SDS011;34462;51.368;12.364;2023-04-24T00:43:49;2.33;;;2.10;;
15258;SDS011;34462;51.368;12.364;2023-04-24T00:46:17;2.63;;;2.15;;
15258;SDS011;34462;51.368;12.364;2023-04-24T00:48:46;2.00;;;1.70;;
15258;SDS011;34462;51.368;12.364;2023-04-24T00:51:14;2.10;;;2.00;;
15258;SDS011;34462;51.368;12.364;2023-04-24T00:53:42;3.83;;;2.30;;
15258;SDS011;34462;51.368;12.364;2023-04-24T00:56:11;2.40;;;2.20;;
15258;SDS011;34462;51.368;12.364;2023-04-24T00:58:39;2.23;;;1.90;;
15258;SDS011;34462;51.368;12.364;2023-04-24T01:01:09;1.80;;;1.70;;
15258;SDS011;34462;51.368;12.364;2023-04-24T01:03:38;2.73;;;1.97;;
15258;SDS011;34462;51.368;12.364;2023-04-24T01:06:08;1.80;;;1.70;;
15258;SDS011;34462;51.368;12.364;2023-04-24T01:08:37;2.40;;;1.90;;
15258;SDS011;34462;51.368;12.364;2023-04-24T01:11:07;2.10;;;1.80;;
15258;SDS011;34462;51.368;12.364;2023-04-24T01:13:36;4.73;;;1.70;;
15258;SDS011;34462;51.368;12.364;2023-04-24T01:16:04;1.90;;;1.80;;
15258;SDS011;34462;51.368;12.364;2023-04-24T01:18:34;2.30;;;1.53;;
15258;SDS011;34462;51.368;12.364;2023-04-24T01:21:02;1.57;;;1.43;;
15258;SDS011;34462;51.368;12.364;2023-04-24T01:23:34;1.70;;;1.60;;
15258;SDS011;34462;51.368;12.364;2023-04-24T01:26:02;1.90;;;1.70;;
15258;SDS011;34462;51.368;12.364;2023-04-24T01:28:31;1.57;;;1.47;;
15258;SDS011;34462;51.368;12.364;2023-04-24T01:30:59;1.50;;;1.30;;
15258;SDS011;34462;51.368;12.364;2023-04-24T01:33:27;1.37;;;1.27;;
15258;SDS011;34462;51.368;12.364;2023-04-24T01:35:56;2.40;;;1.37;;
15258;SDS011;34462;51.368;12.364;2023-04-24T01:38:24;1.20;;;1.10;;
15258;SDS011;34462;51.368;12.364;2023-04-24T01:40:54;1.30;;;1.20;;
15258;SDS011;34462;51.368;12.364;2023-04-24T01:43:22;1.50;;;1.40;;
15258;SDS011;34462;51.368;12.364;2023-04-24T01:45:51;1.57;;;1.33;;
15258;SDS011;34462;51.368;12.364;2023-04-24T01:48:19;1.17;;;1.07;;
15258;SDS011;34462;51.368;12.364;2023-04-24T01:50:47;1.20;;;1.10;;
15258;SDS011;34462;51.368;12.364;2023-04-24T01:53:16;1.30;;;1.20;;
15258;SDS011;34462;51.368;12.364;2023-04-24T01:55:44;1.20;;;1.10;;
15258;SDS011;34462;51.368;12.364;2023-04-24T01:58:14;1.20;;;1.10;;
15258;SDS011;34462;51.368;12.364;2023-04-24T02:00:42;1.20;;;1.10;;
15258;SDS011;34462;51.368;12.364;2023-04-24T02:03:10;1.20;;;1.10;;
15258;SDS011;34462;51.368;12.364;2023-04-24T02:05:38;1.83;;;1.10;;
15258;SDS011;34462;51.368;12.364;2023-04-24T02:08:07;1.10;;;1.00;;
15258;SDS011;34462;51.368;12.364;2023-04-24T02:10:35;1.20;;;1.10;;
15258;SDS011;34462;51.368;12.364;2023-04-24T02:13:03;1.90;;;1.10;;
15258;SDS011;34462;51.368;12.364;2023-04-24T02:15:33;1.20;;;1.10;;
15258;SDS011;34462;51.368;12.364;2023-04-24T02:18:02;1.80;;;1.30;;
15258;SDS011;34462;51.368;12.364;2023-04-24T02:20:30;1.30;;;1.20;;
15258;SDS011;34462;51.368;12.364;2023-04-24T02:23:00;1.50;;;1.40;;
15258;SDS011;34462;51.368;12.364;2023-04-24T02:25:28;3.50;;;1.30;;
15258;SDS011;34462;51.368;12.364;2023-04-24T02:27:56;1.20;;;1.10;;
15258;SDS011;34462;51.368;12.364;2023-04-24T02:30:24;1.47;;;1.30;;
15258;SDS011;34462;51.368;12.364;2023-04-24T02:32:54;1.50;;;1.27;;
15258;SDS011;34462;51.368;12.364;2023-04-24T02:35:22;1.70;;;1.40;;
15258;SDS011;34462;51.368;12.364;2023-04-24T02:37:50;1.30;;;1.20;;
15258;SDS011;34462;51.368;12.364;2023-04-24T02:40:19;3.63;;;1.47;;
15258;SDS011;34462;51.368;12.364;2023-04-24T02:42:47;1.50;;;1.40;;
15258;SDS011;34462;51.368;12.364;2023-04-24T02:45:15;1.50;;;1.40;;
15258;SDS011;34462;51.368;12.364;2023-04-24T02:47:43;1.47;;;1.30;;
15258;SDS011;34462;51.368;12.364;2023-04-24T02:50:13;2.30;;;1.40;;
15258;SDS011;34462;51.368;12.364;2023-04-24T02:52:41;1.70;;;1.60;;
15258;SDS011;34462;51.368;12.364;2023-04-24T02:55:10;2.33;;;1.30;;
15258;SDS011;34462;51.368;12.364;2023-04-24T02:57:38;1.53;;;1.43;;
15258;SDS011;34462;51.368;12.364;2023-04-24T03:00:06;1.40;;;1.30;;
15258;SDS011;34462;51.368;12.364;2023-04-24T03:02:36;1.87;;;1.40;;
15258;SDS011;34462;51.368;12.364;2023-04-24T03:05:05;1.37;;;1.27;;
15258;SDS011;34462;51.368;12.364;2023-04-24T03:07:35;1.57;;;1.47;;
15258;SDS011;34462;51.368;12.364;2023-04-24T03:10:03;1.60;;;1.50;;
15258;SDS011;34462;51.368;12.364;2023-04-24T03:12:33;2.30;;;1.67;;
15258;SDS011;34462;51.368;12.364;2023-04-24T03:15:01;1.87;;;1.50;;
15258;SDS011;34462;51.368;12.364;2023-04-24T03:17:30;2.53;;;1.27;;
15258;SDS011;34462;51.368;12.364;2023-04-24T03:19:58;2.10;;;1.53;;
15258;SDS011;34462;51.368;12.364;2023-04-24T03:22:27;1.53;;;1.43;;
15258;SDS011;34462;51.368;12.364;2023-04-24T03:24:56;1.77;;;1.40;;
15258;SDS011;34462;51.368;12.364;2023-04-24T03:27:24;1.57;;;1.43;;
15258;SDS011;34462;51.368;12.364;2023-04-24T03:29:52;2.60;;;1.40;;
15258;SDS011;34462;51.368;12.364;2023-04-24T03:32:22;2.43;;;1.30;;
15258;SDS011;34462;51.368;12.364;2023-04-24T03:34:50;1.50;;;1.40;;
15258;SDS011;34462;51.368;12.364;2023-04-24T03:37:20;1.80;;;1.23;;
15258;SDS011;34462;51.368;12.364;2023-04-24T03:39:48;1.87;;;1.30;;
15258;SDS011;34462;51.368;12.364;2023-04-24T03:42:17;2.63;;;1.50;;
15258;SDS011;34462;51.368;12.364;2023-04-24T03:44:46;1.40;;;1.30;;
15258;SDS011;34462;51.368;12.364;2023-04-24T03:47:14;1.60;;;1.50;;
15258;SDS011;34462;51.368;12.364;2023-04-24T03:49:42;1.67;;;1.30;;
15258;SDS011;34462;51.368;12.364;2023-04-24T03:52:10;1.70;;;1.60;;
15258;SDS011;34462;51.368;12.364;2023-04-24T03:54:38;1.63;;;1.40;;
15258;SDS011;34462;51.368;12.364;2023-04-24T03:57:06;1.90;;;1.63;;
15258;SDS011;34462;51.368;12.364;2023-04-24T03:59:36;1.60;;;1.50;;
15258;SDS011;34462;51.368;12.364;2023-04-24T04:02:04;2.87;;;1.80;;
15258;SDS011;34462;51.368;12.364;2023-04-24T04:04:33;1.53;;;1.40;;
15258;SDS011;34462;51.368;12.364;2023-04-24T04:07:01;1.70;;;1.60;;
15258;SDS011;34462;51.368;12.364;2023-04-24T04:09:31;3.27;;;1.80;;
15258;SDS011;34462;51.368;12.364;2023-04-24T04:12:00;1.80;;;1.50;;
15258;SDS011;34462;51.368;12.364;2023-04-24T04:14:28;2.33;;;2.10;;
15258;SDS011;34462;51.368;12.364;2023-04-24T04:16:57;2.00;;;1.80;;
15258;SDS011;34462;51.368;12.364;2023-04-24T04:19:25;2.47;;;2.03;;
15258;SDS011;34462;51.368;12.364;2023-04-24T04:21:53;1.80;;;1.70;;
15258;SDS011;34462;51.368;12.364;2023-04-24T04:24:22;1.90;;;1.80;;
15258;SDS011;34462;51.368;12.364;2023-04-24T04:26:50;1.87;;;1.60;;
15258;SDS011;34462;51.368;12.364;2023-04-24T04:29:22;2.10;;;1.93;;
15258;SDS011;34462;51.368;12.364;2023-04-24T04:31:52;1.80;;;1.70;;
15258;SDS011;34462;51.368;12.364;2023-04-24T04:34:22;1.77;;;1.67;;
15258;SDS011;34462;51.368;12.364;2023-04-24T04:36:51;2.17;;;1.80;;
15258;SDS011;34462;51.368;12.364;2023-04-24T04:39:19;2.37;;;1.60;;
15258;SDS011;34462;51.368;12.364;2023-04-24T04:41:47;1.70;;;1.60;;
15258;SDS011;34462;51.368;12.364;2023-04-24T04:44:16;2.40;;;1.70;;
15258;SDS011;34462;51.368;12.364;2023-04-24T04:46:44;2.80;;;1.90;;
15258;SDS011;34462;51.368;12.364;2023-04-24T04:49:13;2.00;;;1.80;;
15258;SDS011;34462;51.368;12.364;2023-04-24T04:51:44;2.00;;;1.80;;
15258;SDS011;34462;51.368;12.364;2023-04-24T04:54:13;2.70;;;1.80;;
15258;SDS011;34462;51.368;12.364;2023-04-24T04:56:41;1.60;;;1.50;;
15258;SDS011;34462;51.368;12.364;2023-04-24T04:59:10;1.83;;;1.30;;
15258;SDS011;34462;51.368;12.364;2023-04-24T05:01:38;3.00;;;1.83;;
15258;SDS011;34462;51.368;12.364;2023-04-24T05:04:06;1.93;;;1.70;;
15258;SDS011;34462;51.368;12.364;2023-04-24T05:06:35;2.00;;;1.33;;
15258;SDS011;34462;51.368;12.364;2023-04-24T05:09:04;1.80;;;1.50;;
15258;SDS011;34462;51.368;12.364;2023-04-24T05:11:33;5.63;;;1.52;;
15258;SDS011;34462;51.368;12.364;2023-04-24T05:14:01;2.83;;;1.40;;
15258;SDS011;34462;51.368;12.364;2023-04-24T05:16:29;2.58;;;1.30;;
15258;SDS011;34462;51.368;12.364;2023-04-24T05:18:58;3.00;;;2.00;;
15258;SDS011;34462;51.368;12.364;2023-04-24T05:21:26;4.93;;;1.73;;
15258;SDS011;34462;51.368;12.364;2023-04-24T05:23:54;2.80;;;1.60;;
15258;SDS011;34462;51.368;12.364;2023-04-24T05:26:23;2.30;;;1.23;;
15258;SDS011;34462;51.368;12.364;2023-04-24T05:28:52;1.60;;;1.50;;
15258;SDS011;34462;51.368;12.364;2023-04-24T05:31:20;1.83;;;1.43;;
15258;SDS011;34462;51.368;12.364;2023-04-24T05:33:48;1.73;;;1.60;;
15258;SDS011;34462;51.368;12.364;2023-04-24T05:36:16;2.47;;;1.90;;
15258;SDS011;34462;51.368;12.364;2023-04-24T05:38:44;2.03;;;1.83;;
15258;SDS011;34462;51.368;12.364;2023-04-24T05:41:12;2.87;;;1.70;;
15258;SDS011;34462;51.368;12.364;2023-04-24T05:43:42;3.10;;;1.47;;
15258;SDS011;34462;51.368;12.364;2023-04-24T05:46:11;3.23;;;2.03;;
15258;SDS011;34462;51.368;12.364;2023-04-24T05:48:39;1.60;;;1.33;;
15258;SDS011;34462;51.368;12.364;2023-04-24T05:51:08;3.27;;;1.70;;
15258;SDS011;34462;51.368;12.364;2023-04-24T05:53:37;3.38;;;1.80;;
15258;SDS011;34462;51.368;12.364;2023-04-24T05:56:05;2.43;;;1.60;;
15258;SDS011;34462;51.368;12.364;2023-04-24T05:58:33;3.40;;;1.70;;
15258;SDS011;34462;51.368;12.364;2023-04-24T06:01:03;2.28;;;1.70;;
15258;SDS011;34462;51.368;12.364;2023-04-24T06:03:31;1.67;;;1.50;;
15258;SDS011;34462;51.368;12.364;2023-04-24T06:06:00;2.65;;;1.50;;
15258;SDS011;34462;51.368;12.364;2023-04-24T06:08:28;5.68;;;1.88;;
15258;SDS011;34462;51.368;12.364;2023-04-24T06:10:56;4.95;;;1.85;;
15258;SDS011;34462;51.368;12.364;2023-04-24T06:13:24;4.35;;;1.30;;
15258;SDS011;34462;51.368;12.364;2023-04-24T06:15:52;4.28;;;1.45;;
15258;SDS011;34462;51.368;12.364;2023-04-24T06:18:22;5.80;;;1.35;;
15258;SDS011;34462;51.368;12.364;2023-04-24T06:20:50;3.38;;;1.25;;
15258;SDS011;34462;51.368;12.364;2023-04-24T06:23:19;2.58;;;1.52;;
15258;SDS011;34462;51.368;12.364;2023-04-24T06:25:47;2.43;;;1.43;;
15258;SDS011;34462;51.368;12.364;2023-04-24T06:28:15;3.28;;;1.48;;
15258;SDS011;34462;51.368;12.364;2023-04-24T06:30:43;2.47;;;1.13;;
15258;SDS011;34462;51.368;12.364;2023-04-24T06:33:11;1.98;;;1.40;;
15258;SDS011;34462;51.368;12.364;2023-04-24T06:35:45;1.35;;;1.20;;
15258;SDS011;34462;51.368;12.364;2023-04-24T06:38:13;1.67;;;1.50;;
15258;SDS011;34462;51.368;12.364;2023-04-24T06:40:42;1.77;;;1.35;;
15258;SDS011;34462;51.368;12.364;2023-04-24T06:43:11;1.45;;;1.35;;
15258;SDS011;34462;51.368;12.364;2023-04-24T06:45:39;2.35;;;1.60;;
15258;SDS011;34462;51.368;12.364;2023-04-24T06:48:07;2.22;;;1.42;;
15258;SDS011;34462;51.368;12.364;2023-04-24T06:50:35;2.22;;;1.67;;
15258;SDS011;34462;51.368;12.364;2023-04-24T06:53:05;3.65;;;1.50;;
15258;SDS011;34462;51.368;12.364;2023-04-24T06:55:33;4.35;;;1.70;;
15258;SDS011;34462;51.368;12.364;2023-04-24T06:58:03;2.97;;;1.60;;
15258;SDS011;34462;51.368;12.364;2023-04-24T07:00:32;2.67;;;1.65;;
15258;SDS011;34462;51.368;12.364;2023-04-24T07:03:00;1.55;;;1.30;;
15258;SDS011;34462;51.368;12.364;2023-04-24T07:05:28;1.63;;;1.38;;
15258;SDS011;34462;51.368;12.364;2023-04-24T07:07:56;4.80;;;1.58;;
15258;SDS011;34462;51.368;12.364;2023-04-24T07:10:26;2.65;;;1.48;;
15258;SDS011;34462;51.368;12.364;2023-04-24T07:12:55;3.05;;;1.80;;
15258;SDS011;34462;51.368;12.364;2023-04-24T07:15:23;2.85;;;1.70;;
15258;SDS011;34462;51.368;12.364;2023-04-24T07:17:52;3.90;;;1.35;;
15258;SDS011;34462;51.368;12.364;2023-04-24T07:20:20;3.00;;;1.48;;
15258;SDS011;34462;51.368;12.364;2023-04-24T07:22:49;3.85;;;1.50;;
15258;SDS011;34462;51.368;12.364;2023-04-24T07:25:17;1.73;;;1.58;;
15258;SDS011;34462;51.368;12.364;2023-04-24T07:27:47;2.17;;;1.33;;
15258;SDS011;34462;51.368;12.364;2023-04-24T07:30:16;3.30;;;1.60;;
15258;SDS011;34462;51.368;12.364;2023-04-24T07:32:44;1.55;;;1.42;;
15258;SDS011;34462;51.368;12.364;2023-04-24T07:35:12;2.00;;;1.35;;
15258;SDS011;34462;51.368;12.364;2023-04-24T07:37:40;1.80;;;1.17;;
15258;SDS011;34462;51.368;12.364;2023-04-24T07:40:11;2.75;;;1.40;;
15258;SDS011;34462;51.368;12.364;2023-04-24T07:42:40;5.93;;;1.50;;
15258;SDS011;34462;51.368;12.364;2023-04-24T07:45:11;3.22;;;1.50;;
15258;SDS011;34462;51.368;12.364;2023-04-24T07:47:39;4.10;;;1.30;;
15258;SDS011;34462;51.368;12.364;2023-04-24T07:50:10;1.63;;;1.23;;
15258;SDS011;34462;51.368;12.364;2023-04-24T07:52:38;3.70;;;1.23;;
15258;SDS011;34462;51.368;12.364;2023-04-24T07:55:07;2.55;;;1.25;;
15258;SDS011;34462;51.368;12.364;2023-04-24T07:57:35;4.28;;;1.88;;
15258;SDS011;34462;51.368;12.364;2023-04-24T08:00:04;3.47;;;2.85;;
15258;SDS011;34462;51.368;12.364;2023-04-24T08:02:35;2.30;;;1.10;;
15258;SDS011;34462;51.368;12.364;2023-04-24T08:05:03;3.20;;;1.23;;
15258;SDS011;34462;51.368;12.364;2023-04-24T08:07:33;2.60;;;2.30;;
15258;SDS011;34462;51.368;12.364;2023-04-24T08:10:02;1.08;;;1.00;;
15258;SDS011;34462;51.368;12.364;2023-04-24T08:12:31;2.17;;;1.00;;
15258;SDS011;34462;51.368;12.364;2023-04-24T08:14:59;1.25;;;1.10;;
15258;SDS011;34462;51.368;12.364;2023-04-24T08:17:27;1.65;;;1.00;;
15258;SDS011;34462;51.368;12.364;2023-04-24T08:19:59;2.47;;;1.00;;
15258;SDS011;34462;51.368;12.364;2023-04-24T08:22:28;1.63;;;1.15;;
15258;SDS011;34462;51.368;12.364;2023-04-24T08:24:56;1.63;;;0.80;;
15258;SDS011;34462;51.368;12.364;2023-04-24T08:27:28;1.92;;;1.20;;
15258;SDS011;34462;51.368;12.364;2023-04-24T08:29:56;1.40;;;1.25;;
15258;SDS011;34462;51.368;12.364;2023-04-24T08:32:25;2.55;;;1.20;;
15258;SDS011;34462;51.368;12.364;2023-04-24T08:34:55;1.95;;;1.00;;
15258;SDS011;34462;51.368;12.364;2023-04-24T08:37:25;1.25;;;0.75;;
15258;SDS011;34462;51.368;12.364;2023-04-24T08:39:54;1.17;;;0.90;;
15258;SDS011;34462;51.368;12.364;2023-04-24T08:42:23;1.70;;;1.00;;
15258;SDS011;34462;51.368;12.364;2023-04-24T08:44:51;2.13;;;1.05;;
15258;SDS011;34462;51.368;12.364;2023-04-24T08:47:20;1.08;;;0.82;;
15258;SDS011;34462;51.368;12.364;2023-04-24T08:49:51;0.52;;;0.52;;
15258;SDS011;34462;51.368;12.364;2023-04-24T08:52:19;2.08;;;0.70;;
15258;SDS011;34462;51.368;12.364;2023-04-24T08:54:50;0.80;;;0.65;;
15258;SDS011;34462;51.368;12.364;2023-04-24T08:57:20;0.70;;;0.70;;
15258;SDS011;34462;51.368;12.364;2023-04-24T08:59:50;0.80;;;0.80;;
15258;SDS011;34462;51.368;12.364;2023-04-24T09:02:19;0.80;;;0.80;;
15258;SDS011;34462;51.368;12.364;2023-04-24T09:04:48;1.58;;;0.80;;
15258;SDS011;34462;51.368;12.364;2023-04-24T09:07:18;1.33;;;0.70;;
15258;SDS011;34462;51.368;12.364;2023-04-24T09:09:51;1.20;;;0.88;;
15258;SDS011;34462;51.368;12.364;2023-04-24T09:12:20;3.13;;;0.90;;
15258;SDS011;34462;51.368;12.364;2023-04-24T09:14:48;2.05;;;0.70;;
15258;SDS011;34462;51.368;12.364;2023-04-24T09:17:18;2.47;;;0.70;;
15258;SDS011;34462;51.368;12.364;2023-04-24T09:19:49;1.35;;;0.90;;
15258;SDS011;34462;51.368;12.364;2023-04-24T09:22:17;1.40;;;0.80;;
15258;SDS011;34462;51.368;12.364;2023-04-24T09:24:45;0.75;;;0.75;;
15258;SDS011;34462;51.368;12.364;2023-04-24T09:27:16;0.98;;;0.73;;
15258;SDS011;34462;51.368;12.364;2023-04-24T09:29:53;0.85;;;0.80;;
15258;SDS011;34462;51.368;12.364;2023-04-24T09:32:22;1.45;;;0.80;;
15258;SDS011;34462;51.368;12.364;2023-04-24T09:35:04;1.98;;;0.95;;
15258;SDS011;34462;51.368;12.364;2023-04-24T09:37:39;4.25;;;1.00;;
15258;SDS011;34462;51.368;12.364;2023-04-24T09:40:09;1.60;;;1.00;;
15258;SDS011;34462;51.368;12.364;2023-04-24T09:42:45;2.65;;;1.00;;
15258;SDS011;34462;51.368;12.364;2023-04-24T09:45:18;3.60;;;0.95;;
15258;SDS011;34462;51.368;12.364;2023-04-24T09:47:51;1.83;;;0.88;;
15258;SDS011;34462;51.368;12.364;2023-04-24T09:50:20;1.20;;;0.80;;
15258;SDS011;34462;51.368;12.364;2023-04-24T09:52:56;1.83;;;0.93;;
15258;SDS011;34462;51.368;12.364;2023-04-24T09:55:26;1.08;;;0.98;;
15258;SDS011;34462;51.368;12.364;2023-04-24T09:57:56;2.53;;;1.10;;
15258;SDS011;34462;51.368;12.364;2023-04-24T10:00:26;0.80;;;0.80;;
15258;SDS011;34462;51.368;12.364;2023-04-24T10:02:57;2.22;;;0.90;;
15258;SDS011;34462;51.368;12.364;2023-04-24T10:05:28;2.17;;;0.98;;
15258;SDS011;34462;51.368;12.364;2023-04-24T10:08:01;1.67;;;0.90;;
15258;SDS011;34462;51.368;12.364;2023-04-24T10:10:33;1.00;;;0.90;;
15258;SDS011;34462;51.368;12.364;2023-04-24T10:13:08;2.33;;;1.05;;
15258;SDS011;34462;51.368;12.364;2023-04-24T10:15:38;0.82;;;0.82;;
15258;SDS011;34462;51.368;12.364;2023-04-24T10:18:08;1.27;;;1.00;;
15258;SDS011;34462;51.368;12.364;2023-04-24T10:20:38;1.50;;;1.00;;
15258;SDS011;34462;51.368;12.364;2023-04-24T10:23:07;0.88;;;0.88;;
15258;SDS011;34462;51.368;12.364;2023-04-24T10:25:35;2.10;;;0.93;;
15258;SDS011;34462;51.368;12.364;2023-04-24T10:28:04;1.05;;;0.85;;
15258;SDS011;34462;51.368;12.364;2023-04-24T10:30:37;0.85;;;0.80;;
15258;SDS011;34462;51.368;12.364;2023-04-24T10:33:10;1.30;;;1.15;;
15258;SDS011;34462;51.368;12.364;2023-04-24T10:35:45;0.95;;;0.88;;
15258;SDS011;34462;51.368;12.364;2023-04-24T10:38:18;3.42;;;1.10;;
15258;SDS011;34462;51.368;12.364;2023-04-24T10:40:57;3.50;;;1.42;;
15258;SDS011;34462;51.368;12.364;2023-04-24T10:43:35;3.67;;;1.13;;
15258;SDS011;34462;51.368;12.364;2023-04-24T10:46:05;2.25;;;1.27;;
15258;SDS011;34462;51.368;12.364;2023-04-24T10:48:34;1.40;;;0.90;;
15258;SDS011;34462;51.368;12.364;2023-04-24T10:51:10;0.90;;;0.82;;
15258;SDS011;34462;51.368;12.364;2023-04-24T10:53:41;1.58;;;1.00;;
15258;SDS011;34462;51.368;12.364;2023-04-24T10:56:09;2.17;;;0.90;;
15258;SDS011;34462;51.368;12.364;2023-04-24T10:58:39;1.40;;;1.10;;
15258;SDS011;34462;51.368;12.364;2023-04-24T11:01:24;1.80;;;1.10;;
15258;SDS011;34462;51.368;12.364;2023-04-24T11:03:54;2.45;;;1.08;;
15258;SDS011;34462;51.368;12.364;2023-04-24T11:06:31;0.98;;;0.90;;
15258;SDS011;34462;51.368;12.364;2023-04-24T11:09:02;0.82;;;0.82;;
15258;SDS011;34462;51.368;12.364;2023-04-24T11:11:33;0.98;;;0.80;;
15258;SDS011;34462;51.368;12.364;2023-04-24T11:14:04;1.10;;;1.00;;
15258;SDS011;34462;51.368;12.364;2023-04-24T11:16:44;2.90;;;1.17;;
15258;SDS011;34462;51.368;12.364;2023-04-24T11:19:21;1.23;;;1.13;;
15258;SDS011;34462;51.368;12.364;2023-04-24T11:21:55;1.40;;;1.30;;
15258;SDS011;34462;51.368;12.364;2023-04-24T11:24:27;1.35;;;1.20;;
15258;SDS011;34462;51.368;12.364;2023-04-24T11:27:12;1.83;;;1.50;;
15258;SDS011;34462;51.368;12.364;2023-04-24T11:29:44;2.20;;;1.40;;
15258;SDS011;34462;51.368;12.364;2023-04-24T11:32:24;2.55;;;1.20;;
15258;SDS011;34462;51.368;12.364;2023-04-24T11:34:54;1.20;;;1.10;;
15258;SDS011;34462;51.368;12.364;2023-04-24T11:37:26;1.50;;;1.40;;
15258;SDS011;34462;51.368;12.364;2023-04-24T11:39:57;5.47;;;1.25;;
15258;SDS011;34462;51.368;12.364;2023-04-24T11:42:27;2.42;;;1.20;;
15258;SDS011;34462;51.368;12.364;2023-04-24T11:45:00;1.27;;;1.13;;
15258;SDS011;34462;51.368;12.364;2023-04-24T11:47:30;1.48;;;1.17;;
15258;SDS011;34462;51.368;12.364;2023-04-24T11:50:00;1.30;;;1.02;;
15258;SDS011;34462;51.368;12.364;2023-04-24T11:52:30;2.05;;;1.13;;
15258;SDS011;34462;51.368;12.364;2023-04-24T11:55:00;1.33;;;1.20;;
15258;SDS011;34462;51.368;12.364;2023-04-24T11:57:29;1.08;;;0.80;;
15258;SDS011;34462;51.368;12.364;2023-04-24T12:00:00;2.38;;;1.00;;
15258;SDS011;34462;51.368;12.364;2023-04-24T12:02:32;2.72;;;1.10;;
15258;SDS011;34462;51.368;12.364;2023-04-24T12:05:03;1.23;;;1.13;;
15258;SDS011;34462;51.368;12.364;2023-04-24T12:07:39;1.52;;;1.40;;
15258;SDS011;34462;51.368;12.364;2023-04-24T12:10:09;1.58;;;0.90;;
15258;SDS011;34462;51.368;12.364;2023-04-24T12:12:38;1.20;;;1.10;;
15258;SDS011;34462;51.368;12.364;2023-04-24T12:15:07;2.28;;;1.00;;
15258;SDS011;34462;51.368;12.364;2023-04-24T12:17:40;2.85;;;1.02;;
15258;SDS011;34462;51.368;12.364;2023-04-24T12:20:09;2.72;;;1.30;;
15258;SDS011;34462;51.368;12.364;2023-04-24T12:22:45;2.42;;;1.20;;
15258;SDS011;34462;51.368;12.364;2023-04-24T12:25:17;1.67;;;1.25;;
15258;SDS011;34462;51.368;12.364;2023-04-24T12:27:51;1.83;;;1.40;;
15258;SDS011;34462;51.368;12.364;2023-04-24T12:30:26;1.40;;;1.30;;
15258;SDS011;34462;51.368;12.364;2023-04-24T12:32:58;1.70;;;1.20;;
15258;SDS011;34462;51.368;12.364;2023-04-24T12:35:30;1.60;;;1.50;;
15258;SDS011;34462;51.368;12.364;2023-04-24T12:38:05;1.70;;;1.45;;
15258;SDS011;34462;51.368;12.364;2023-04-24T12:40:34;1.73;;;1.63;;
15258;SDS011;34462;51.368;12.364;2023-04-24T12:43:02;1.27;;;1.17;;
15258;SDS011;34462;51.368;12.364;2023-04-24T12:45:41;3.08;;;1.38;;
15258;SDS011;34462;51.368;12.364;2023-04-24T12:48:12;2.65;;;1.20;;
15258;SDS011;34462;51.368;12.364;2023-04-24T12:50:41;2.55;;;1.27;;
15258;SDS011;34462;51.368;12.364;2023-04-24T12:53:12;7.95;;;1.58;;
15258;SDS011;34462;51.368;12.364;2023-04-24T12:55:41;1.42;;;1.27;;
15258;SDS011;34462;51.368;12.364;2023-04-24T12:58:10;1.35;;;1.25;;
15258;SDS011;34462;51.368;12.364;2023-04-24T13:00:38;3.00;;;1.67;;
15258;SDS011;34462;51.368;12.364;2023-04-24T13:03:09;1.50;;;1.30;;
15258;SDS011;34462;51.368;12.364;2023-04-24T13:05:39;2.38;;;1.58;;
15258;SDS011;34462;51.368;12.364;2023-04-24T13:08:08;1.40;;;1.30;;
15258;SDS011;34462;51.368;12.364;2023-04-24T13:10:36;1.70;;;1.42;;
15258;SDS011;34462;51.368;12.364;2023-04-24T13:13:04;1.42;;;1.13;;
15258;SDS011;34462;51.368;12.364;2023-04-24T13:15:32;2.13;;;1.20;;
15258;SDS011;34462;51.368;12.364;2023-04-24T13:18:00;2.20;;;1.40;;
15258;SDS011;34462;51.368;12.364;2023-04-24T13:20:30;2.13;;;1.40;;
15258;SDS011;34462;51.368;12.364;2023-04-24T13:22:58;1.30;;;1.20;;
15258;SDS011;34462;51.368;12.364;2023-04-24T13:25:26;1.40;;;1.30;;
15258;SDS011;34462;51.368;12.364;2023-04-24T13:27:54;1.50;;;1.27;;
15258;SDS011;34462;51.368;12.364;2023-04-24T13:30:22;2.17;;;1.98;;
15258;SDS011;34462;51.368;12.364;2023-04-24T13:32:50;1.55;;;1.45;;
15258;SDS011;34462;51.368;12.364;2023-04-24T13:35:18;2.75;;;1.40;;
15258;SDS011;34462;51.368;12.364;2023-04-24T13:37:48;1.40;;;1.30;;
15258;SDS011;34462;51.368;12.364;2023-04-24T13:40:16;1.98;;;1.45;;
15258;SDS011;34462;51.368;12.364;2023-04-24T13:42:44;3.50;;;1.60;;
15258;SDS011;34462;51.368;12.364;2023-04-24T13:45:12;2.45;;;1.40;;
15258;SDS011;34462;51.368;12.364;2023-04-24T13:47:50;1.48;;;1.30;;
15258;SDS011;34462;51.368;12.364;2023-04-24T13:50:20;1.35;;;1.25;;
15258;SDS011;34462;51.368;12.364;2023-04-24T13:52:49;1.95;;;1.20;;
15258;SDS011;34462;51.368;12.364;2023-04-24T13:55:17;1.33;;;1.10;;
15258;SDS011;34462;51.368;12.364;2023-04-24T13:57:46;3.20;;;1.42;;
15258;SDS011;34462;51.368;12.364;2023-04-24T14:00:14;2.40;;;1.30;;
15258;SDS011;34462;51.368;12.364;2023-04-24T14:02:44;1.95;;;1.30;;
15258;SDS011;34462;51.368;12.364;2023-04-24T14:05:12;1.95;;;1.30;;
15258;SDS011;34462;51.368;12.364;2023-04-24T14:07:41;2.45;;;1.20;;
15258;SDS011;34462;51.368;12.364;2023-04-24T14:10:10;1.30;;;1.20;;
15258;SDS011;34462;51.368;12.364;2023-04-24T14:12:39;2.15;;;1.10;;
15258;SDS011;34462;51.368;12.364;2023-04-24T14:15:07;1.92;;;0.90;;
15258;SDS011;34462;51.368;12.364;2023-04-24T14:17:36;3.75;;;0.90;;
15258;SDS011;34462;51.368;12.364;2023-04-24T14:20:05;1.60;;;1.00;;
15258;SDS011;34462;51.368;12.364;2023-04-24T14:22:35;1.48;;;1.00;;
15258;SDS011;34462;51.368;12.364;2023-04-24T14:25:03;1.52;;;1.33;;
15258;SDS011;34462;51.368;12.364;2023-04-24T14:27:33;2.60;;;1.20;;
15258;SDS011;34462;51.368;12.364;2023-04-24T14:30:02;1.38;;;1.20;;
15258;SDS011;34462;51.368;12.364;2023-04-24T14:32:31;4.93;;;1.30;;
15258;SDS011;34462;51.368;12.364;2023-04-24T14:35:00;4.10;;;1.42;;
15258;SDS011;34462;51.368;12.364;2023-04-24T14:37:28;3.78;;;0.90;;
15258;SDS011;34462;51.368;12.364;2023-04-24T14:39:56;3.50;;;0.90;;
15258;SDS011;34462;51.368;12.364;2023-04-24T14:42:46;3.45;;;0.70;;
15258;SDS011;34462;51.368;12.364;2023-04-24T14:45:14;1.58;;;0.65;;
15258;SDS011;34462;51.368;12.364;2023-04-24T14:47:42;1.45;;;0.52;;